sensor_id;sensor_type;location;lat;lon;timestamp;P1;durP1;ratioP1;P2;durP2;ratioP2
665;SDS011;315;48.738;9.126;2022-11-15T00:00:50;7.00;;;5.63;;
665;SDS011;315;48.738;9.126;2022-11-15T00:03:17;8.43;;;5.50;;
665;SDS011;315;48.738;9.126;2022-11-15T00:05:44;6.80;;;5.23;;
665;SDS011;315;48.738;9.126;2022-11-15T00:08:11;5.20;;;4.70;;
665;SDS011;315;48.738;9.126;2022-11-15T00:10:37;5.17;;;3.73;;
665;SDS011;315;48.738;9.126;2022-11-15T00:13:20;4.17;;;3.87;;
665;SDS011;315;48.738;9.126;2022-11-15T00:15:46;4.50;;;3.63;;
665;SDS011;315;48.738;9.126;2022-11-15T00:18:12;4.27;;;3.40;;
665;SDS011;315;48.738;9.126;2022-11-15T00:20:38;4.20;;;3.77;;
665;SDS011;315;48.738;9.126;2022-11-15T00:23:04;4.77;;;3.97;;
665;SDS011;315;48.738;9.126;2022-11-15T00:25:30;4.07;;;3.47;;
665;SDS011;315;48.738;9.126;2022-11-15T00:27:57;4.47;;;3.93;;
665;SDS011;315;48.738;9.126;2022-11-15T00:30:24;4.47;;;3.63;;
665;SDS011;315;48.738;9.126;2022-11-15T00:32:50;4.93;;;3.70;;
665;SDS011;315;48.738;9.126;2022-11-15T00:35:15;5.50;;;4.00;;
665;SDS011;315;48.738;9.126;2022-11-15T00:37:41;5.80;;;3.90;;
665;SDS011;315;48.738;9.126;2022-11-15T00:40:07;6.23;;;4.13;;
665;SDS011;315;48.738;9.126;2022-11-15T00:42:33;5.17;;;4.00;;
665;SDS011;315;48.738;9.126;2022-11-15T00:44:59;4.63;;;3.63;;
665;SDS011;315;48.738;9.126;2022-11-15T00:47:24;4.27;;;3.67;;
665;SDS011;315;48.738;9.126;2022-11-15T00:49:50;5.50;;;4.43;;
665;SDS011;315;48.738;9.126;2022-11-15T00:52:15;6.20;;;3.60;;
665;SDS011;315;48.738;9.126;2022-11-15T00:54:41;3.60;;;3.30;;
665;SDS011;315;48.738;9.126;2022-11-15T00:57:06;4.03;;;3.50;;
665;SDS011;315;48.738;9.126;2022-11-15T00:59:32;5.47;;;4.20;;
665;SDS011;315;48.738;9.126;2022-11-15T01:01:57;3.93;;;3.67;;
665;SDS011;315;48.738;9.126;2022-11-15T01:04:23;4.50;;;4.10;;
665;SDS011;315;48.738;9.126;2022-11-15T01:06:48;4.40;;;4.00;;
665;SDS011;315;48.738;9.126;2022-11-15T01:09:14;5.67;;;4.90;;
665;SDS011;315;48.738;9.126;2022-11-15T01:11:39;4.73;;;4.30;;
665;SDS011;315;48.738;9.126;2022-11-15T01:14:05;5.40;;;4.90;;
665;SDS011;315;48.738;9.126;2022-11-15T01:16:31;5.17;;;4.67;;
665;SDS011;315;48.738;9.126;2022-11-15T01:18:58;5.30;;;4.80;;
665;SDS011;315;48.738;9.126;2022-11-15T01:21:23;5.90;;;4.20;;
665;SDS011;315;48.738;9.126;2022-11-15T01:23:52;4.07;;;3.77;;
665;SDS011;315;48.738;9.126;2022-11-15T01:26:18;5.23;;;4.43;;
665;SDS011;315;48.738;9.126;2022-11-15T01:28:44;4.73;;;4.10;;
665;SDS011;315;48.738;9.126;2022-11-15T01:31:14;4.57;;;4.20;;
665;SDS011;315;48.738;9.126;2022-11-15T01:33:41;5.13;;;4.10;;
665;SDS011;315;48.738;9.126;2022-11-15T01:36:11;3.97;;;3.67;;
665;SDS011;315;48.738;9.126;2022-11-15T01:38:44;4.50;;;4.10;;
665;SDS011;315;48.738;9.126;2022-11-15T01:41:16;6.50;;;4.70;;
665;SDS011;315;48.738;9.126;2022-11-15T01:43:46;3.83;;;3.53;;
665;SDS011;315;48.738;9.126;2022-11-15T01:46:29;4.60;;;4.03;;
665;SDS011;315;48.738;9.126;2022-11-15T01:48:59;3.93;;;3.63;;
665;SDS011;315;48.738;9.126;2022-11-15T01:51:29;4.50;;;3.80;;
665;SDS011;315;48.738;9.126;2022-11-15T01:53:58;7.10;;;3.57;;
665;SDS011;315;48.738;9.126;2022-11-15T01:56:31;4.30;;;3.90;;
665;SDS011;315;48.738;9.126;2022-11-15T01:59:01;3.67;;;3.37;;
665;SDS011;315;48.738;9.126;2022-11-15T02:01:29;7.17;;;3.97;;
665;SDS011;315;48.738;9.126;2022-11-15T02:03:58;5.33;;;3.97;;
665;SDS011;315;48.738;9.126;2022-11-15T02:06:27;4.00;;;3.60;;
665;SDS011;315;48.738;9.126;2022-11-15T02:08:52;3.87;;;3.50;;
665;SDS011;315;48.738;9.126;2022-11-15T02:11:19;6.00;;;3.90;;
665;SDS011;315;48.738;9.126;2022-11-15T02:13:44;3.97;;;3.30;;
665;SDS011;315;48.738;9.126;2022-11-15T02:27:37;3.27;;;3.00;;
665;SDS011;315;48.738;9.126;2022-11-15T02:30:44;3.77;;;3.37;;
665;SDS011;315;48.738;9.126;2022-11-15T02:33:31;4.43;;;3.33;;
665;SDS011;315;48.738;9.126;2022-11-15T02:36:05;4.80;;;2.97;;
665;SDS011;315;48.738;9.126;2022-11-15T02:38:54;4.23;;;3.83;;
665;SDS011;315;48.738;9.126;2022-11-15T02:41:37;3.37;;;3.07;;
665;SDS011;315;48.738;9.126;2022-11-15T02:49:31;4.50;;;4.10;;
665;SDS011;315;48.738;9.126;2022-11-15T02:51:58;3.93;;;3.60;;
665;SDS011;315;48.738;9.126;2022-11-15T02:54:26;3.47;;;3.20;;
665;SDS011;315;48.738;9.126;2022-11-15T02:56:56;4.83;;;4.13;;
665;SDS011;315;48.738;9.126;2022-11-15T03:02:18;3.97;;;3.67;;
665;SDS011;315;48.738;9.126;2022-11-15T03:05:09;3.63;;;3.33;;
665;SDS011;315;48.738;9.126;2022-11-15T03:19:01;8.50;;;3.50;;
665;SDS011;315;48.738;9.126;2022-11-15T03:21:38;4.00;;;3.63;;
665;SDS011;315;48.738;9.126;2022-11-15T03:24:05;4.13;;;3.40;;
665;SDS011;315;48.738;9.126;2022-11-15T03:26:33;7.53;;;4.40;;
665;SDS011;315;48.738;9.126;2022-11-15T03:29:06;5.80;;;3.33;;
665;SDS011;315;48.738;9.126;2022-11-15T03:31:38;6.90;;;3.90;;
665;SDS011;315;48.738;9.126;2022-11-15T03:34:20;4.07;;;3.77;;
665;SDS011;315;48.738;9.126;2022-11-15T03:37:08;7.23;;;4.40;;
665;SDS011;315;48.738;9.126;2022-11-15T03:39:36;4.97;;;4.47;;
665;SDS011;315;48.738;9.126;2022-11-15T03:42:04;7.83;;;4.03;;
665;SDS011;315;48.738;9.126;2022-11-15T03:44:46;5.23;;;3.77;;
665;SDS011;315;48.738;9.126;2022-11-15T03:47:28;4.37;;;3.97;;
665;SDS011;315;48.738;9.126;2022-11-15T03:50:11;7.13;;;3.97;;
665;SDS011;315;48.738;9.126;2022-11-15T03:52:39;4.20;;;3.80;;
665;SDS011;315;48.738;9.126;2022-11-15T03:55:08;5.87;;;3.40;;
665;SDS011;315;48.738;9.126;2022-11-15T03:57:36;5.47;;;4.10;;
665;SDS011;315;48.738;9.126;2022-11-15T04:00:02;4.77;;;4.37;;
665;SDS011;315;48.738;9.126;2022-11-15T04:02:29;4.30;;;3.77;;
665;SDS011;315;48.738;9.126;2022-11-15T04:04:54;4.07;;;3.70;;
665;SDS011;315;48.738;9.126;2022-11-15T04:07:20;4.97;;;3.50;;
665;SDS011;315;48.738;9.126;2022-11-15T04:09:46;5.23;;;3.40;;
665;SDS011;315;48.738;9.126;2022-11-15T04:12:27;4.17;;;3.50;;
665;SDS011;315;48.738;9.126;2022-11-15T04:14:56;6.17;;;3.80;;
665;SDS011;315;48.738;9.126;2022-11-15T04:17:39;5.63;;;3.83;;
665;SDS011;315;48.738;9.126;2022-11-15T04:20:29;3.13;;;2.83;;
665;SDS011;315;48.738;9.126;2022-11-15T04:23:18;9.03;;;3.77;;
665;SDS011;315;48.738;9.126;2022-11-15T04:26:04;4.00;;;3.60;;
665;SDS011;315;48.738;9.126;2022-11-15T04:28:32;3.43;;;2.73;;
665;SDS011;315;48.738;9.126;2022-11-15T04:30:57;3.80;;;3.50;;
665;SDS011;315;48.738;9.126;2022-11-15T04:33:23;4.37;;;3.90;;
665;SDS011;315;48.738;9.126;2022-11-15T04:35:49;6.33;;;3.50;;
665;SDS011;315;48.738;9.126;2022-11-15T04:38:34;3.50;;;3.00;;
665;SDS011;315;48.738;9.126;2022-11-15T04:41:00;4.37;;;3.37;;
665;SDS011;315;48.738;9.126;2022-11-15T04:43:26;5.80;;;4.73;;
665;SDS011;315;48.738;9.126;2022-11-15T04:45:53;4.47;;;4.00;;
665;SDS011;315;48.738;9.126;2022-11-15T04:48:18;5.03;;;3.43;;
665;SDS011;315;48.738;9.126;2022-11-15T04:50:44;5.10;;;3.40;;
665;SDS011;315;48.738;9.126;2022-11-15T04:53:09;6.30;;;3.30;;
665;SDS011;315;48.738;9.126;2022-11-15T04:55:35;3.63;;;2.93;;
665;SDS011;315;48.738;9.126;2022-11-15T04:58:00;3.97;;;3.67;;
665;SDS011;315;48.738;9.126;2022-11-15T05:00:27;4.50;;;3.10;;
665;SDS011;315;48.738;9.126;2022-11-15T05:02:53;4.27;;;3.87;;
665;SDS011;315;48.738;9.126;2022-11-15T05:05:37;3.93;;;3.20;;
665;SDS011;315;48.738;9.126;2022-11-15T05:08:03;3.50;;;3.20;;
665;SDS011;315;48.738;9.126;2022-11-15T05:10:29;4.50;;;3.70;;
665;SDS011;315;48.738;9.126;2022-11-15T05:12:54;4.60;;;2.70;;
665;SDS011;315;48.738;9.126;2022-11-15T05:15:20;3.80;;;3.50;;
665;SDS011;315;48.738;9.126;2022-11-15T05:17:45;3.77;;;3.47;;
665;SDS011;315;48.738;9.126;2022-11-15T05:20:11;3.57;;;3.27;;
665;SDS011;315;48.738;9.126;2022-11-15T05:22:37;4.60;;;3.30;;
665;SDS011;315;48.738;9.126;2022-11-15T05:25:03;4.80;;;4.40;;
665;SDS011;315;48.738;9.126;2022-11-15T05:27:29;4.20;;;3.80;;
665;SDS011;315;48.738;9.126;2022-11-15T05:29:54;6.07;;;4.27;;
665;SDS011;315;48.738;9.126;2022-11-15T05:32:20;4.07;;;3.63;;
665;SDS011;315;48.738;9.126;2022-11-15T05:34:45;5.17;;;3.60;;
665;SDS011;315;48.738;9.126;2022-11-15T05:37:11;4.00;;;3.50;;
665;SDS011;315;48.738;9.126;2022-11-15T05:39:38;3.80;;;3.50;;
665;SDS011;315;48.738;9.126;2022-11-15T05:42:10;4.00;;;3.40;;
665;SDS011;315;48.738;9.126;2022-11-15T05:44:39;4.10;;;3.60;;
665;SDS011;315;48.738;9.126;2022-11-15T05:47:08;5.37;;;4.87;;
665;SDS011;315;48.738;9.126;2022-11-15T05:49:37;6.90;;;4.37;;
665;SDS011;315;48.738;9.126;2022-11-15T05:52:06;7.70;;;5.47;;
665;SDS011;315;48.738;9.126;2022-11-15T05:54:35;4.67;;;3.53;;
665;SDS011;315;48.738;9.126;2022-11-15T05:57:01;8.43;;;5.00;;
665;SDS011;315;48.738;9.126;2022-11-15T05:59:30;7.80;;;4.97;;
665;SDS011;315;48.738;9.126;2022-11-15T06:01:57;8.03;;;5.00;;
665;SDS011;315;48.738;9.126;2022-11-15T06:04:23;4.97;;;4.40;;
665;SDS011;315;48.738;9.126;2022-11-15T06:06:48;5.07;;;4.23;;
665;SDS011;315;48.738;9.126;2022-11-15T06:09:14;5.67;;;3.90;;
665;SDS011;315;48.738;9.126;2022-11-15T06:11:39;4.73;;;4.00;;
665;SDS011;315;48.738;9.126;2022-11-15T06:14:05;6.50;;;5.27;;
665;SDS011;315;48.738;9.126;2022-11-15T06:16:30;5.70;;;4.10;;
665;SDS011;315;48.738;9.126;2022-11-15T06:18:56;4.60;;;3.93;;
665;SDS011;315;48.738;9.126;2022-11-15T06:21:22;5.33;;;4.83;;
665;SDS011;315;48.738;9.126;2022-11-15T06:23:47;6.03;;;4.97;;
665;SDS011;315;48.738;9.126;2022-11-15T06:26:13;5.30;;;4.70;;
665;SDS011;315;48.738;9.126;2022-11-15T06:28:38;10.17;;;5.20;;
665;SDS011;315;48.738;9.126;2022-11-15T06:31:08;9.63;;;4.87;;
665;SDS011;315;48.738;9.126;2022-11-15T06:33:36;7.50;;;5.17;;
665;SDS011;315;48.738;9.126;2022-11-15T06:36:06;12.93;;;5.27;;
665;SDS011;315;48.738;9.126;2022-11-15T06:38:34;6.30;;;5.60;;
665;SDS011;315;48.738;9.126;2022-11-15T06:41:04;9.03;;;6.50;;
665;SDS011;315;48.738;9.126;2022-11-15T06:43:31;21.93;;;9.40;;
665;SDS011;315;48.738;9.126;2022-11-15T06:45:57;8.97;;;6.70;;
665;SDS011;315;48.738;9.126;2022-11-15T06:48:24;7.60;;;6.60;;
665;SDS011;315;48.738;9.126;2022-11-15T06:50:51;6.73;;;6.10;;
665;SDS011;315;48.738;9.126;2022-11-15T06:53:17;8.80;;;5.80;;
665;SDS011;315;48.738;9.126;2022-11-15T06:55:42;10.63;;;6.10;;
665;SDS011;315;48.738;9.126;2022-11-15T06:58:08;7.80;;;6.27;;
665;SDS011;315;48.738;9.126;2022-11-15T07:00:34;9.60;;;6.80;;
665;SDS011;315;48.738;9.126;2022-11-15T07:03:00;12.40;;;8.80;;
665;SDS011;315;48.738;9.126;2022-11-15T07:05:26;10.00;;;5.90;;
665;SDS011;315;48.738;9.126;2022-11-15T07:07:52;8.00;;;6.80;;
665;SDS011;315;48.738;9.126;2022-11-15T07:10:20;9.53;;;7.50;;
665;SDS011;315;48.738;9.126;2022-11-15T07:12:49;7.70;;;5.70;;
665;SDS011;315;48.738;9.126;2022-11-15T07:15:16;13.10;;;6.93;;
665;SDS011;315;48.738;9.126;2022-11-15T07:17:43;7.40;;;5.80;;
665;SDS011;315;48.738;9.126;2022-11-15T07:20:08;11.67;;;6.67;;
665;SDS011;315;48.738;9.126;2022-11-15T07:22:35;6.63;;;5.67;;
665;SDS011;315;48.738;9.126;2022-11-15T07:25:00;8.53;;;6.17;;
665;SDS011;315;48.738;9.126;2022-11-15T07:27:26;8.40;;;5.80;;
665;SDS011;315;48.738;9.126;2022-11-15T07:29:51;8.33;;;6.10;;
665;SDS011;315;48.738;9.126;2022-11-15T07:32:17;6.17;;;5.67;;
665;SDS011;315;48.738;9.126;2022-11-15T07:34:42;8.60;;;5.67;;
665;SDS011;315;48.738;9.126;2022-11-15T07:37:08;6.23;;;5.63;;
665;SDS011;315;48.738;9.126;2022-11-15T07:39:33;6.97;;;6.27;;
665;SDS011;315;48.738;9.126;2022-11-15T07:41:59;6.80;;;6.10;;
665;SDS011;315;48.738;9.126;2022-11-15T07:44:43;6.27;;;5.67;;
665;SDS011;315;48.738;9.126;2022-11-15T07:47:09;7.57;;;5.30;;
665;SDS011;315;48.738;9.126;2022-11-15T07:49:34;9.77;;;6.50;;
665;SDS011;315;48.738;9.126;2022-11-15T07:52:00;6.80;;;5.63;;
665;SDS011;315;48.738;9.126;2022-11-15T07:54:25;11.37;;;7.60;;
665;SDS011;315;48.738;9.126;2022-11-15T07:56:51;7.33;;;5.60;;
665;SDS011;315;48.738;9.126;2022-11-15T07:59:16;10.37;;;5.90;;
665;SDS011;315;48.738;9.126;2022-11-15T08:01:42;7.10;;;5.80;;
665;SDS011;315;48.738;9.126;2022-11-15T08:04:09;6.30;;;5.23;;
665;SDS011;315;48.738;9.126;2022-11-15T08:06:35;10.63;;;5.60;;
665;SDS011;315;48.738;9.126;2022-11-15T08:09:01;7.93;;;5.90;;
665;SDS011;315;48.738;9.126;2022-11-15T08:11:27;5.00;;;4.50;;
665;SDS011;315;48.738;9.126;2022-11-15T08:13:52;8.13;;;5.87;;
665;SDS011;315;48.738;9.126;2022-11-15T08:16:18;4.07;;;3.70;;
665;SDS011;315;48.738;9.126;2022-11-15T08:18:44;4.70;;;4.30;;
665;SDS011;315;48.738;9.126;2022-11-15T08:21:09;5.87;;;5.30;;
665;SDS011;315;48.738;9.126;2022-11-15T08:23:36;6.60;;;5.10;;
665;SDS011;315;48.738;9.126;2022-11-15T08:26:02;6.60;;;4.73;;
665;SDS011;315;48.738;9.126;2022-11-15T08:28:29;8.63;;;7.63;;
665;SDS011;315;48.738;9.126;2022-11-15T08:30:55;4.83;;;4.30;;
665;SDS011;315;48.738;9.126;2022-11-15T08:33:21;4.27;;;3.47;;
665;SDS011;315;48.738;9.126;2022-11-15T08:35:46;5.20;;;3.53;;
665;SDS011;315;48.738;9.126;2022-11-15T08:38:13;6.23;;;4.90;;
665;SDS011;315;48.738;9.126;2022-11-15T08:40:39;4.57;;;4.20;;
665;SDS011;315;48.738;9.126;2022-11-15T08:43:04;4.10;;;3.70;;
665;SDS011;315;48.738;9.126;2022-11-15T08:45:30;5.20;;;4.67;;
665;SDS011;315;48.738;9.126;2022-11-15T08:47:55;5.50;;;5.00;;
665;SDS011;315;48.738;9.126;2022-11-15T08:50:21;4.40;;;4.00;;
665;SDS011;315;48.738;9.126;2022-11-15T08:52:47;5.87;;;4.80;;
665;SDS011;315;48.738;9.126;2022-11-15T08:55:15;6.00;;;5.50;;
665;SDS011;315;48.738;9.126;2022-11-15T08:57:41;3.93;;;3.53;;
665;SDS011;315;48.738;9.126;2022-11-15T09:00:06;5.23;;;3.63;;
665;SDS011;315;48.738;9.126;2022-11-15T09:02:33;7.00;;;6.27;;
665;SDS011;315;48.738;9.126;2022-11-15T09:04:58;4.00;;;3.70;;
665;SDS011;315;48.738;9.126;2022-11-15T09:07:24;6.93;;;3.80;;
665;SDS011;315;48.738;9.126;2022-11-15T09:09:49;4.10;;;3.07;;
665;SDS011;315;48.738;9.126;2022-11-15T09:12:15;4.50;;;3.20;;
665;SDS011;315;48.738;9.126;2022-11-15T09:14:40;3.53;;;3.00;;
665;SDS011;315;48.738;9.126;2022-11-15T09:17:09;3.70;;;3.40;;
665;SDS011;315;48.738;9.126;2022-11-15T09:19:35;6.10;;;3.80;;
665;SDS011;315;48.738;9.126;2022-11-15T09:22:01;5.33;;;4.20;;
665;SDS011;315;48.738;9.126;2022-11-15T09:24:29;6.07;;;4.27;;
665;SDS011;315;48.738;9.126;2022-11-15T09:26:55;6.27;;;5.77;;
665;SDS011;315;48.738;9.126;2022-11-15T09:29:21;4.80;;;4.40;;
665;SDS011;315;48.738;9.126;2022-11-15T09:31:46;6.00;;;3.77;;
665;SDS011;315;48.738;9.126;2022-11-15T09:34:12;6.40;;;3.47;;
665;SDS011;315;48.738;9.126;2022-11-15T09:36:37;3.83;;;3.43;;
665;SDS011;315;48.738;9.126;2022-11-15T09:39:03;3.27;;;3.07;;
665;SDS011;315;48.738;9.126;2022-11-15T09:50:00;3.33;;;2.90;;
665;SDS011;315;48.738;9.126;2022-11-15T09:52:33;3.30;;;3.00;;
665;SDS011;315;48.738;9.126;2022-11-15T09:55:01;4.33;;;3.10;;
665;SDS011;315;48.738;9.126;2022-11-15T09:57:30;3.33;;;3.03;;
665;SDS011;315;48.738;9.126;2022-11-15T10:00:16;4.23;;;2.80;;
665;SDS011;315;48.738;9.126;2022-11-15T10:05:29;7.67;;;2.90;;
665;SDS011;315;48.738;9.126;2022-11-15T10:10:47;3.00;;;2.80;;
665;SDS011;315;48.738;9.126;2022-11-15T10:13:22;7.73;;;4.10;;
665;SDS011;315;48.738;9.126;2022-11-15T10:15:50;4.43;;;2.97;;
665;SDS011;315;48.738;9.126;2022-11-15T10:18:25;3.40;;;3.10;;
665;SDS011;315;48.738;9.126;2022-11-15T10:21:02;4.87;;;2.80;;
665;SDS011;315;48.738;9.126;2022-11-15T10:23:41;5.20;;;3.93;;
665;SDS011;315;48.738;9.126;2022-11-15T10:26:08;5.17;;;3.70;;
665;SDS011;315;48.738;9.126;2022-11-15T10:28:36;4.80;;;4.30;;
665;SDS011;315;48.738;9.126;2022-11-15T10:31:02;5.10;;;3.07;;
665;SDS011;315;48.738;9.126;2022-11-15T10:33:32;3.00;;;2.80;;
665;SDS011;315;48.738;9.126;2022-11-15T10:41:18;2.30;;;2.10;;
665;SDS011;315;48.738;9.126;2022-11-15T10:44:01;2.70;;;2.50;;
665;SDS011;315;48.738;9.126;2022-11-15T10:46:34;3.27;;;2.40;;
665;SDS011;315;48.738;9.126;2022-11-15T10:49:17;4.43;;;3.00;;
665;SDS011;315;48.738;9.126;2022-11-15T10:51:54;6.50;;;3.20;;
665;SDS011;315;48.738;9.126;2022-11-15T10:54:23;3.70;;;3.27;;
665;SDS011;315;48.738;9.126;2022-11-15T10:56:56;10.83;;;4.80;;
665;SDS011;315;48.738;9.126;2022-11-15T10:59:27;3.40;;;3.10;;
665;SDS011;315;48.738;9.126;2022-11-15T11:01:55;5.83;;;2.87;;
665;SDS011;315;48.738;9.126;2022-11-15T11:04:21;2.47;;;2.27;;
665;SDS011;315;48.738;9.126;2022-11-15T11:09:22;4.17;;;3.50;;
665;SDS011;315;48.738;9.126;2022-11-15T11:11:48;5.30;;;4.17;;
665;SDS011;315;48.738;9.126;2022-11-15T11:14:37;5.93;;;3.70;;
665;SDS011;315;48.738;9.126;2022-11-15T11:17:04;5.50;;;3.10;;
665;SDS011;315;48.738;9.126;2022-11-15T11:28:09;3.13;;;2.70;;
665;SDS011;315;48.738;9.126;2022-11-15T11:31:00;7.80;;;5.00;;
665;SDS011;315;48.738;9.126;2022-11-15T11:33:31;8.93;;;2.97;;
665;SDS011;315;48.738;9.126;2022-11-15T11:41:53;4.07;;;2.63;;
665;SDS011;315;48.738;9.126;2022-11-15T11:44:32;3.90;;;2.47;;
665;SDS011;315;48.738;9.126;2022-11-15T11:47:12;4.00;;;3.00;;
665;SDS011;315;48.738;9.126;2022-11-15T11:49:47;5.77;;;3.77;;
665;SDS011;315;48.738;9.126;2022-11-15T11:52:25;5.60;;;3.73;;
665;SDS011;315;48.738;9.126;2022-11-15T11:57:51;5.23;;;3.67;;
665;SDS011;315;48.738;9.126;2022-11-15T12:00:26;4.67;;;2.83;;
665;SDS011;315;48.738;9.126;2022-11-15T12:05:52;3.40;;;3.00;;
665;SDS011;315;48.738;9.126;2022-11-15T12:08:45;5.40;;;2.70;;
665;SDS011;315;48.738;9.126;2022-11-15T12:11:26;5.00;;;3.10;;
665;SDS011;315;48.738;9.126;2022-11-15T12:13:59;5.20;;;3.90;;
665;SDS011;315;48.738;9.126;2022-11-15T12:16:29;3.30;;;2.50;;
665;SDS011;315;48.738;9.126;2022-11-15T12:18:59;5.20;;;2.70;;
665;SDS011;315;48.738;9.126;2022-11-15T12:24:12;2.30;;;2.10;;
665;SDS011;315;48.738;9.126;2022-11-15T12:26:47;2.30;;;2.10;;
665;SDS011;315;48.738;9.126;2022-11-15T12:29:23;7.03;;;4.90;;
665;SDS011;315;48.738;9.126;2022-11-15T12:31:56;4.37;;;3.43;;
665;SDS011;315;48.738;9.126;2022-11-15T12:36:52;2.33;;;2.10;;
665;SDS011;315;48.738;9.126;2022-11-15T12:39:18;5.73;;;2.40;;
665;SDS011;315;48.738;9.126;2022-11-15T12:42:34;3.80;;;2.23;;
665;SDS011;315;48.738;9.126;2022-11-15T12:47:04;1.90;;;1.80;;
665;SDS011;315;48.738;9.126;2022-11-15T12:49:48;2.90;;;2.60;;
665;SDS011;315;48.738;9.126;2022-11-15T12:52:14;2.83;;;2.50;;
665;SDS011;315;48.738;9.126;2022-11-15T13:02:28;3.90;;;2.70;;
665;SDS011;315;48.738;9.126;2022-11-15T13:08:00;2.87;;;2.67;;
665;SDS011;315;48.738;9.126;2022-11-15T13:12:56;6.43;;;4.30;;
665;SDS011;315;48.738;9.126;2022-11-15T13:18:37;11.00;;;5.03;;
665;SDS011;315;48.738;9.126;2022-11-15T13:21:05;6.00;;;5.40;;
665;SDS011;315;48.738;9.126;2022-11-15T13:24:02;6.13;;;5.23;;
665;SDS011;315;48.738;9.126;2022-11-15T13:26:29;7.00;;;5.10;;
665;SDS011;315;48.738;9.126;2022-11-15T13:28:55;4.80;;;3.80;;
665;SDS011;315;48.738;9.126;2022-11-15T13:31:23;5.50;;;3.30;;
665;SDS011;315;48.738;9.126;2022-11-15T13:33:52;3.90;;;2.87;;
665;SDS011;315;48.738;9.126;2022-11-15T13:36:23;2.83;;;2.50;;
665;SDS011;315;48.738;9.126;2022-11-15T13:41:50;5.13;;;2.30;;
665;SDS011;315;48.738;9.126;2022-11-15T13:44:27;3.57;;;2.40;;
665;SDS011;315;48.738;9.126;2022-11-15T13:47:05;3.87;;;2.67;;
665;SDS011;315;48.738;9.126;2022-11-15T13:49:37;8.50;;;5.50;;
665;SDS011;315;48.738;9.126;2022-11-15T13:52:04;9.17;;;5.50;;
665;SDS011;315;48.738;9.126;2022-11-15T13:54:35;6.50;;;5.77;;
665;SDS011;315;48.738;9.126;2022-11-15T13:57:12;7.97;;;7.07;;
665;SDS011;315;48.738;9.126;2022-11-15T13:59:51;6.80;;;6.10;;
665;SDS011;315;48.738;9.126;2022-11-15T14:02:20;13.80;;;5.73;;
665;SDS011;315;48.738;9.126;2022-11-15T14:04:51;9.40;;;6.57;;
665;SDS011;315;48.738;9.126;2022-11-15T14:07:25;8.13;;;6.70;;
665;SDS011;315;48.738;9.126;2022-11-15T14:09:52;15.17;;;11.17;;
665;SDS011;315;48.738;9.126;2022-11-15T14:12:29;14.63;;;7.20;;
665;SDS011;315;48.738;9.126;2022-11-15T14:14:57;7.40;;;6.70;;
665;SDS011;315;48.738;9.126;2022-11-15T14:19:56;7.80;;;7.00;;
665;SDS011;315;48.738;9.126;2022-11-15T14:22:26;8.20;;;6.83;;
665;SDS011;315;48.738;9.126;2022-11-15T14:27:40;7.57;;;6.43;;
665;SDS011;315;48.738;9.126;2022-11-15T14:30:12;11.53;;;6.60;;
665;SDS011;315;48.738;9.126;2022-11-15T14:32:43;19.10;;;7.33;;
665;SDS011;315;48.738;9.126;2022-11-15T14:35:20;8.80;;;6.97;;
665;SDS011;315;48.738;9.126;2022-11-15T14:37:47;7.33;;;6.40;;
665;SDS011;315;48.738;9.126;2022-11-15T14:40:14;8.20;;;6.90;;
665;SDS011;315;48.738;9.126;2022-11-15T14:42:42;7.47;;;6.77;;
665;SDS011;315;48.738;9.126;2022-11-15T14:45:13;8.40;;;6.33;;
665;SDS011;315;48.738;9.126;2022-11-15T14:47:40;6.70;;;6.00;;
665;SDS011;315;48.738;9.126;2022-11-15T14:50:10;8.87;;;6.37;;
665;SDS011;315;48.738;9.126;2022-11-15T14:52:37;6.93;;;6.30;;
665;SDS011;315;48.738;9.126;2022-11-15T14:55:03;9.60;;;7.47;;
665;SDS011;315;48.738;9.126;2022-11-15T14:57:36;7.23;;;6.50;;
665;SDS011;315;48.738;9.126;2022-11-15T15:00:02;8.97;;;8.00;;
665;SDS011;315;48.738;9.126;2022-11-15T15:02:29;8.03;;;7.23;;
665;SDS011;315;48.738;9.126;2022-11-15T15:04:54;9.70;;;6.30;;
665;SDS011;315;48.738;9.126;2022-11-15T15:07:20;8.33;;;6.43;;
665;SDS011;315;48.738;9.126;2022-11-15T15:09:47;17.70;;;9.70;;
665;SDS011;315;48.738;9.126;2022-11-15T15:12:19;15.90;;;14.23;;
665;SDS011;315;48.738;9.126;2022-11-15T15:14:47;7.63;;;6.90;;
665;SDS011;315;48.738;9.126;2022-11-15T15:17:14;8.37;;;6.37;;
665;SDS011;315;48.738;9.126;2022-11-15T15:19:40;8.37;;;7.47;;
665;SDS011;315;48.738;9.126;2022-11-15T15:22:08;10.10;;;7.10;;
665;SDS011;315;48.738;9.126;2022-11-15T15:24:38;8.17;;;6.87;;
665;SDS011;315;48.738;9.126;2022-11-15T15:27:04;7.57;;;6.20;;
665;SDS011;315;48.738;9.126;2022-11-15T15:29:29;7.30;;;6.60;;
665;SDS011;315;48.738;9.126;2022-11-15T15:31:55;8.53;;;6.80;;
665;SDS011;315;48.738;9.126;2022-11-15T15:34:20;8.17;;;6.17;;
665;SDS011;315;48.738;9.126;2022-11-15T15:36:46;8.17;;;6.90;;
665;SDS011;315;48.738;9.126;2022-11-15T15:39:11;7.70;;;6.17;;
665;SDS011;315;48.738;9.126;2022-11-15T15:41:37;10.90;;;7.00;;
665;SDS011;315;48.738;9.126;2022-11-15T15:44:02;7.63;;;6.37;;
665;SDS011;315;48.738;9.126;2022-11-15T15:46:28;7.60;;;6.80;;
665;SDS011;315;48.738;9.126;2022-11-15T15:48:53;8.50;;;7.10;;
665;SDS011;315;48.738;9.126;2022-11-15T15:51:19;8.40;;;7.60;;
665;SDS011;315;48.738;9.126;2022-11-15T15:53:45;7.33;;;6.70;;
665;SDS011;315;48.738;9.126;2022-11-15T15:56:10;12.00;;;7.60;;
665;SDS011;315;48.738;9.126;2022-11-15T15:58:36;7.80;;;7.00;;
665;SDS011;315;48.738;9.126;2022-11-15T16:01:01;9.17;;;7.10;;
665;SDS011;315;48.738;9.126;2022-11-15T16:03:27;14.20;;;7.97;;
665;SDS011;315;48.738;9.126;2022-11-15T16:05:53;9.80;;;7.57;;
665;SDS011;315;48.738;9.126;2022-11-15T16:08:22;8.90;;;7.40;;
665;SDS011;315;48.738;9.126;2022-11-15T16:10:48;9.20;;;8.30;;
665;SDS011;315;48.738;9.126;2022-11-15T16:13:14;8.70;;;7.90;;
665;SDS011;315;48.738;9.126;2022-11-15T16:15:40;15.33;;;9.10;;
665;SDS011;315;48.738;9.126;2022-11-15T16:18:17;9.83;;;7.90;;
665;SDS011;315;48.738;9.126;2022-11-15T16:20:47;9.63;;;8.73;;
665;SDS011;315;48.738;9.126;2022-11-15T16:23:15;16.87;;;8.33;;
665;SDS011;315;48.738;9.126;2022-11-15T16:25:52;9.70;;;8.23;;
665;SDS011;315;48.738;9.126;2022-11-15T16:30:47;12.47;;;9.80;;
665;SDS011;315;48.738;9.126;2022-11-15T16:33:14;11.17;;;10.03;;
665;SDS011;315;48.738;9.126;2022-11-15T16:35:42;9.73;;;8.70;;
665;SDS011;315;48.738;9.126;2022-11-15T16:38:12;15.70;;;9.00;;
665;SDS011;315;48.738;9.126;2022-11-15T16:40:39;13.10;;;10.20;;
665;SDS011;315;48.738;9.126;2022-11-15T16:43:04;13.50;;;10.67;;
665;SDS011;315;48.738;9.126;2022-11-15T16:45:30;11.87;;;9.13;;
665;SDS011;315;48.738;9.126;2022-11-15T16:47:59;13.40;;;9.30;;
665;SDS011;315;48.738;9.126;2022-11-15T16:50:25;10.37;;;9.13;;
665;SDS011;315;48.738;9.126;2022-11-15T16:52:55;12.70;;;9.33;;
665;SDS011;315;48.738;9.126;2022-11-15T16:55:22;12.47;;;9.33;;
665;SDS011;315;48.738;9.126;2022-11-15T16:57:50;15.67;;;9.67;;
665;SDS011;315;48.738;9.126;2022-11-15T17:00:16;13.47;;;9.30;;
665;SDS011;315;48.738;9.126;2022-11-15T17:02:43;11.77;;;10.13;;
665;SDS011;315;48.738;9.126;2022-11-15T17:05:10;12.33;;;9.97;;
665;SDS011;315;48.738;9.126;2022-11-15T17:07:37;11.50;;;10.13;;
665;SDS011;315;48.738;9.126;2022-11-15T17:10:03;12.50;;;11.20;;
665;SDS011;315;48.738;9.126;2022-11-15T17:12:29;14.57;;;10.80;;
665;SDS011;315;48.738;9.126;2022-11-15T17:14:55;11.70;;;9.67;;
665;SDS011;315;48.738;9.126;2022-11-15T17:17:21;16.97;;;10.10;;
665;SDS011;315;48.738;9.126;2022-11-15T17:19:47;11.70;;;10.47;;
665;SDS011;315;48.738;9.126;2022-11-15T17:22:12;16.03;;;11.10;;
665;SDS011;315;48.738;9.126;2022-11-15T17:24:38;13.00;;;10.27;;
665;SDS011;315;48.738;9.126;2022-11-15T17:27:03;15.33;;;10.97;;
665;SDS011;315;48.738;9.126;2022-11-15T17:29:29;12.23;;;9.50;;
665;SDS011;315;48.738;9.126;2022-11-15T17:31:54;11.80;;;9.70;;
665;SDS011;315;48.738;9.126;2022-11-15T17:34:20;12.70;;;10.03;;
665;SDS011;315;48.738;9.126;2022-11-15T17:36:45;10.77;;;9.27;;
665;SDS011;315;48.738;9.126;2022-11-15T17:39:12;12.83;;;9.57;;
665;SDS011;315;48.738;9.126;2022-11-15T17:41:37;18.20;;;9.93;;